createdAt,value
2023-05-14T00:00:19.576Z,10.40
2023-05-14T00:02:46.260Z,10.40
2023-05-14T00:05:13.001Z,10.40
2023-05-14T00:07:39.644Z,10.40
2023-05-14T00:10:06.660Z,10.40
2023-05-14T00:12:33.486Z,10.30
2023-05-14T00:15:00.621Z,10.30
2023-05-14T00:17:27.279Z,10.30
2023-05-14T00:19:53.982Z,10.20
2023-05-14T00:22:20.587Z,10.30
2023-05-14T00:24:47.210Z,10.20
2023-05-14T00:27:14.693Z,10.10
2023-05-14T00:29:41.283Z,10.20
2023-05-14T00:32:08.047Z,10.20
2023-05-14T00:34:34.921Z,10.20
2023-05-14T00:37:01.854Z,10.10
2023-05-14T00:39:28.569Z,10.10
2023-05-14T00:41:55.725Z,10.10
2023-05-14T00:44:22.352Z,10.90
2023-05-14T00:46:49.045Z,10.10
2023-05-14T00:49:15.795Z,10.20
2023-05-14T00:51:42.912Z,10.20
2023-05-14T00:54:09.531Z,10.20
2023-05-14T00:56:36.207Z,10.20
2023-05-14T00:59:02.840Z,10.10
2023-05-14T01:01:29.693Z,10.10
2023-05-14T01:03:57.988Z,10.10
2023-05-14T01:06:28.814Z,10.10
2023-05-14T01:08:58.580Z,10.00
2023-05-14T01:11:50.794Z,10.00
2023-05-14T01:14:21.534Z,9.90
2023-05-14T01:16:49.459Z,10.00
2023-05-14T01:19:27.553Z,10.00
2023-05-14T01:21:54.168Z,10.00
2023-05-14T01:24:20.781Z,10.00
2023-05-14T01:26:47.452Z,10.00
2023-05-14T01:29:16.741Z,10.00
2023-05-14T01:31:45.706Z,9.90
2023-05-14T01:34:13.882Z,9.90
2023-05-14T01:36:41.049Z,10.00
2023-05-14T01:39:09.629Z,10.00
2023-05-14T01:41:37.171Z,9.90
2023-05-14T01:44:03.872Z,9.80
2023-05-14T01:46:33.752Z,9.80
2023-05-14T01:49:01.125Z,9.80
2023-05-14T01:51:28.060Z,9.80
2023-05-14T01:53:54.769Z,9.80
2023-05-14T01:56:25.456Z,9.80
2023-05-14T01:58:52.517Z,9.80
2023-05-14T02:01:19.167Z,9.90
2023-05-14T02:03:47.548Z,10.30
2023-05-14T02:06:14.444Z,9.90
2023-05-14T02:08:41.039Z,9.90
2023-05-14T02:11:07.705Z,9.90
2023-05-14T02:13:34.345Z,9.90
2023-05-14T02:16:01.225Z,9.90
2023-05-14T02:18:27.887Z,10.60
2023-05-14T02:20:54.527Z,10.50
2023-05-14T02:23:31.035Z,9.80
2023-05-14T02:26:04.785Z,9.80
2023-05-14T02:28:31.404Z,9.70
2023-05-14T02:30:58.559Z,9.70
2023-05-14T02:33:25.194Z,9.60
2023-05-14T02:35:51.900Z,9.60
2023-05-14T02:38:18.730Z,9.60
2023-05-14T02:40:45.338Z,9.60
2023-05-14T02:43:11.980Z,9.60
2023-05-14T02:45:38.582Z,9.50
2023-05-14T02:48:05.407Z,9.50
2023-05-14T02:50:32.035Z,9.60
2023-05-14T02:52:58.668Z,9.60
2023-05-14T02:55:26.437Z,9.50
2023-05-14T02:57:53.307Z,9.50
2023-05-14T03:00:20.096Z,9.40
2023-05-14T03:02:47.244Z,9.40
2023-05-14T03:05:14.705Z,9.40
2023-05-14T03:07:41.302Z,9.50
2023-05-14T03:10:08.104Z,9.50
2023-05-14T03:12:34.716Z,9.40
2023-05-14T03:15:01.359Z,9.50
2023-05-14T03:17:28.011Z,9.50
2023-05-14T03:19:54.637Z,9.50
2023-05-14T03:22:21.354Z,9.40
2023-05-14T03:24:48.066Z,10.20
2023-05-14T03:27:14.963Z,9.50
2023-05-14T03:29:41.578Z,9.50
2023-05-14T03:32:08.248Z,9.50
2023-05-14T03:34:34.984Z,9.50
2023-05-14T03:37:01.583Z,9.50
2023-05-14T03:39:28.190Z,9.50
2023-05-14T03:41:56.946Z,9.50
2023-05-14T03:44:24.666Z,9.60
2023-05-14T03:46:51.345Z,9.60
2023-05-14T03:49:18.000Z,9.50
2023-05-14T03:51:44.979Z,9.50
2023-05-14T03:54:11.659Z,9.40
2023-05-14T03:56:38.289Z,9.40
2023-05-14T03:59:04.891Z,9.40
2023-05-14T04:01:32.341Z,9.40
2023-05-14T04:03:59.036Z,9.50
2023-05-14T04:06:26.123Z,9.50
2023-05-14T04:08:52.744Z,9.50
2023-05-14T04:11:19.338Z,9.50
2023-05-14T04:13:46.324Z,9.60
2023-05-14T04:16:13.166Z,9.60
2023-05-14T04:18:40.186Z,9.60
2023-05-14T04:21:06.900Z,9.60
2023-05-14T04:23:33.537Z,9.60
2023-05-14T04:26:00.244Z,9.60
2023-05-14T04:28:26.885Z,9.50
2023-05-14T04:30:53.471Z,9.60
2023-05-14T04:33:20.245Z,9.50
2023-05-14T04:35:46.841Z,9.50
2023-05-14T04:38:14.406Z,9.50
2023-05-14T04:40:44.195Z,9.50
2023-05-14T04:43:10.845Z,9.50
2023-05-14T04:45:37.536Z,9.50
2023-05-14T04:48:04.495Z,9.60
2023-05-14T04:50:31.280Z,9.60
2023-05-14T04:52:57.888Z,9.70
2023-05-14T04:55:24.567Z,9.70
2023-05-14T04:57:51.253Z,9.70
2023-05-14T05:00:18.000Z,9.80
2023-05-14T05:02:44.674Z,9.90
2023-05-14T05:05:11.332Z,10.00
2023-05-14T05:07:37.933Z,10.00
2023-05-14T05:10:04.811Z,10.80
2023-05-14T05:12:31.476Z,10.00
2023-05-14T05:14:58.117Z,10.10
2023-05-14T05:17:25.159Z,10.10
2023-05-14T05:19:52.540Z,10.20
2023-05-14T05:22:20.128Z,10.10
2023-05-14T05:24:47.984Z,10.20
2023-05-14T05:27:15.844Z,10.20
2023-05-14T05:29:43.368Z,10.10
2023-05-14T05:32:09.976Z,10.00
2023-05-14T05:34:36.754Z,10.00
2023-05-14T05:37:03.585Z,10.10
2023-05-14T05:39:34.615Z,10.10
2023-05-14T05:42:02.258Z,10.30
2023-05-14T05:44:28.960Z,10.40
2023-05-14T05:46:57.293Z,10.50
2023-05-14T05:49:24.097Z,10.60
2023-05-14T05:51:50.870Z,10.70
2023-05-14T05:54:17.596Z,10.70
2023-05-14T05:56:44.201Z,10.70
2023-05-14T05:59:10.854Z,10.70
2023-05-14T06:01:37.607Z,10.60
2023-05-14T06:04:06.224Z,10.70
2023-05-14T06:06:33.018Z,10.90
2023-05-14T06:09:01.733Z,11.10
2023-05-14T06:11:28.369Z,11.30
2023-05-14T06:13:55.006Z,11.40
2023-05-14T06:16:21.623Z,11.50
2023-05-14T06:18:48.550Z,11.50
2023-05-14T06:21:15.234Z,11.40
2023-05-14T06:23:41.843Z,11.40
2023-05-14T06:26:08.431Z,11.60
2023-05-14T06:28:35.142Z,11.70
2023-05-14T06:31:01.732Z,12.40
2023-05-14T06:33:31.475Z,12.00
2023-05-14T06:35:58.705Z,12.10
2023-05-14T06:38:25.661Z,12.10
2023-05-14T06:40:53.183Z,12.10
2023-05-14T06:43:19.794Z,12.20
2023-05-14T06:45:49.852Z,12.60
2023-05-14T06:48:18.691Z,12.10
2023-05-14T06:50:45.958Z,12.10
2023-05-14T06:53:12.759Z,12.10
2023-05-14T06:55:39.446Z,12.20
2023-05-14T06:58:09.292Z,12.20
2023-05-14T07:00:35.984Z,12.20
2023-05-14T07:03:02.689Z,12.20
2023-05-14T07:05:29.377Z,12.20
2023-05-14T07:07:55.994Z,12.30
2023-05-14T07:10:22.932Z,13.20
2023-05-14T07:12:49.765Z,12.50
2023-05-14T07:15:16.406Z,12.90
2023-05-14T07:17:43.065Z,12.50
2023-05-14T07:20:09.933Z,12.70
2023-05-14T07:22:36.578Z,12.80
2023-05-14T07:25:03.470Z,12.80
2023-05-14T07:27:30.098Z,12.90
2023-05-14T07:29:56.669Z,13.20
2023-05-14T07:32:25.025Z,13.20
2023-05-14T07:34:51.917Z,13.40
2023-05-14T07:37:18.781Z,13.60
2023-05-14T07:39:45.535Z,13.40
2023-05-14T07:42:19.360Z,13.50
2023-05-14T07:44:51.926Z,13.50
2023-05-14T07:47:18.606Z,13.70
2023-05-14T07:49:45.281Z,13.90
2023-05-14T07:52:11.925Z,13.90
2023-05-14T07:54:38.583Z,14.10
2023-05-14T07:57:05.411Z,14.40
2023-05-14T07:59:32.189Z,14.70
2023-05-14T08:01:58.811Z,15.00
2023-05-14T08:04:26.368Z,14.90
2023-05-14T08:06:53.039Z,15.20
2023-05-14T08:09:19.621Z,15.20
2023-05-14T08:11:46.252Z,15.30
2023-05-14T08:14:12.863Z,15.30
2023-05-14T08:16:39.518Z,15.20
2023-05-14T08:19:06.320Z,15.40
2023-05-14T08:21:33.064Z,15.20
2023-05-14T08:23:59.671Z,15.50
2023-05-14T08:26:26.458Z,15.80
2023-05-14T08:28:53.678Z,15.80
2023-05-14T08:31:20.477Z,16.00
2023-05-14T08:33:47.125Z,15.80
2023-05-14T08:36:13.789Z,15.90
2023-05-14T08:38:40.664Z,16.20
2023-05-14T08:41:07.383Z,16.50
2023-05-14T08:43:39.803Z,16.20
2023-05-14T08:46:06.515Z,16.20
2023-05-14T08:48:34.366Z,16.10
2023-05-14T08:51:01.519Z,16.40
2023-05-14T08:53:28.431Z,16.40
2023-05-14T08:55:55.060Z,16.50
2023-05-14T08:58:21.720Z,16.60
2023-05-14T09:00:48.473Z,16.70
2023-05-14T09:03:15.970Z,16.90
2023-05-14T09:05:42.665Z,16.90
2023-05-14T09:08:09.250Z,16.90
2023-05-14T09:10:36.054Z,17.00
2023-05-14T09:13:02.684Z,17.00
2023-05-14T09:15:29.714Z,17.10
2023-05-14T09:17:56.536Z,17.10
2023-05-14T09:20:24.699Z,17.20
2023-05-14T09:22:54.752Z,17.20
2023-05-14T09:25:26.291Z,17.00
2023-05-14T09:27:55.369Z,16.80
2023-05-14T09:30:24.384Z,16.50
2023-05-14T09:32:52.891Z,16.20
2023-05-14T09:35:25.697Z,16.00
2023-05-14T09:37:53.481Z,15.70
2023-05-14T09:40:20.954Z,15.30
2023-05-14T09:42:49.045Z,15.10
2023-05-14T09:45:15.796Z,14.90
2023-05-14T09:47:42.728Z,14.80
2023-05-14T09:50:09.645Z,14.60
2023-05-14T09:52:37.252Z,14.50
2023-05-14T09:55:04.179Z,14.60
2023-05-14T09:57:30.909Z,14.60
2023-05-14T09:59:57.510Z,14.50
2023-05-14T10:02:25.677Z,14.40
2023-05-14T10:04:58.786Z,14.30
2023-05-14T10:07:29.131Z,14.30
2023-05-14T10:10:01.552Z,14.30
2023-05-14T10:12:33.724Z,14.40
2023-05-14T10:15:03.614Z,14.50
2023-05-14T10:17:31.947Z,14.60
2023-05-14T10:19:59.296Z,14.70
2023-05-14T10:22:26.856Z,14.80
2023-05-14T10:24:53.927Z,14.90
2023-05-14T10:27:21.565Z,14.90
2023-05-14T10:29:53.823Z,15.10
2023-05-14T10:32:25.500Z,15.30
2023-05-14T10:34:53.575Z,15.30
2023-05-14T10:37:24.716Z,15.40
2023-05-14T10:39:51.321Z,15.40
2023-05-14T10:42:17.945Z,15.30
2023-05-14T10:45:07.507Z,15.50
2023-05-14T10:47:38.420Z,15.60
2023-05-14T10:50:06.139Z,15.60
2023-05-14T10:52:33.905Z,15.70
2023-05-14T10:55:03.459Z,15.90
2023-05-14T10:57:31.594Z,15.90
2023-05-14T10:59:59.679Z,16.00
2023-05-14T11:02:27.290Z,15.90
2023-05-14T11:04:59.953Z,15.90
2023-05-14T11:07:31.640Z,16.00
2023-05-14T11:10:00.316Z,15.80
2023-05-14T11:12:27.914Z,15.70
2023-05-14T11:14:57.041Z,15.60
2023-05-14T11:17:24.684Z,15.50
2023-05-14T11:19:51.399Z,15.80
2023-05-14T11:22:18.057Z,15.90
2023-05-14T11:24:44.696Z,16.00
2023-05-14T11:27:11.303Z,16.40
2023-05-14T11:29:38.184Z,16.80
2023-05-14T11:32:05.794Z,17.10
2023-05-14T11:34:32.781Z,17.20
2023-05-14T11:36:59.418Z,17.20
2023-05-14T11:39:26.021Z,17.20
2023-05-14T11:41:52.658Z,17.20
2023-05-14T11:44:19.341Z,17.10
2023-05-14T11:46:58.619Z,16.90
2023-05-14T11:49:25.710Z,16.70
2023-05-14T11:51:59.284Z,16.30
2023-05-14T11:54:27.077Z,16.00
2023-05-14T11:56:54.592Z,15.60
2023-05-14T11:59:21.466Z,15.40
2023-05-14T12:01:50.686Z,15.20
2023-05-14T12:04:18.963Z,15.10
2023-05-14T12:06:46.689Z,15.10
2023-05-14T12:09:16.210Z,15.10
2023-05-14T12:11:42.938Z,15.00
2023-05-14T12:14:16.357Z,14.90
2023-05-14T12:16:46.743Z,14.70
2023-05-14T12:19:20.691Z,14.40
2023-05-14T12:21:48.285Z,14.30
2023-05-14T12:24:16.479Z,14.20
2023-05-14T12:26:46.872Z,14.00
2023-05-14T12:29:14.048Z,14.10
2023-05-14T12:31:45.344Z,14.00
2023-05-14T12:34:12.083Z,14.10
2023-05-14T12:36:38.884Z,14.10
2023-05-14T12:39:06.055Z,14.20
2023-05-14T12:41:33.104Z,14.10
2023-05-14T12:44:00.872Z,14.00
2023-05-14T12:46:27.790Z,14.40
2023-05-14T12:48:54.739Z,14.10
2023-05-14T12:51:21.514Z,14.10
2023-05-14T12:53:48.324Z,14.20
2023-05-14T12:56:14.928Z,14.20
2023-05-14T12:58:41.556Z,14.10
2023-05-14T13:01:08.806Z,14.00
2023-05-14T13:03:35.583Z,14.00
2023-05-14T13:06:02.212Z,14.10
2023-05-14T13:08:28.855Z,14.10
2023-05-14T13:10:55.940Z,14.20
2023-05-14T13:13:23.200Z,14.30
2023-05-14T13:15:49.889Z,14.40
2023-05-14T13:18:17.516Z,14.60
2023-05-14T13:20:45.004Z,14.80
2023-05-14T13:23:11.617Z,14.90
2023-05-14T13:25:38.387Z,14.90
2023-05-14T13:28:05.224Z,14.90
2023-05-14T13:30:32.300Z,15.00
2023-05-14T13:32:59.516Z,14.90
2023-05-14T13:35:26.326Z,14.90
2023-05-14T13:37:53.128Z,14.70
2023-05-14T13:40:19.789Z,14.60
2023-05-14T13:42:46.372Z,14.40
2023-05-14T13:45:13.130Z,14.20
2023-05-14T13:47:40.370Z,14.20
2023-05-14T13:50:07.325Z,14.10
2023-05-14T13:52:34.090Z,14.20
2023-05-14T13:55:00.749Z,14.30
2023-05-14T13:57:27.338Z,14.40
2023-05-14T13:59:54.106Z,14.60
2023-05-14T14:02:20.877Z,14.90
2023-05-14T14:04:47.603Z,15.00
2023-05-14T14:07:14.214Z,15.10
2023-05-14T14:09:40.913Z,15.20
2023-05-14T14:12:07.908Z,15.20
2023-05-14T14:14:34.638Z,15.00
2023-05-14T14:17:01.283Z,14.90
2023-05-14T14:19:27.870Z,14.80
2023-05-14T14:21:54.494Z,14.80
2023-05-14T14:24:21.074Z,15.00
2023-05-14T14:26:47.692Z,15.10
2023-05-14T14:29:14.337Z,15.40
2023-05-14T14:31:40.969Z,15.20
2023-05-14T14:34:07.649Z,15.20
2023-05-14T14:36:34.333Z,15.30
2023-05-14T14:39:01.009Z,15.30
2023-05-14T14:41:27.656Z,15.30
2023-05-14T14:43:54.254Z,15.30
2023-05-14T14:46:20.897Z,15.20
2023-05-14T14:48:47.772Z,15.10
2023-05-14T14:51:14.478Z,15.10
2023-05-14T14:53:41.247Z,15.00
2023-05-14T14:56:07.880Z,15.00
2023-05-14T14:58:34.553Z,14.70
2023-05-14T15:01:01.378Z,14.70
2023-05-14T15:03:28.716Z,14.60
2023-05-14T15:05:55.649Z,14.60
2023-05-14T15:08:24.829Z,14.60
2023-05-14T15:10:51.533Z,14.50
2023-05-14T15:13:18.844Z,14.50
2023-05-14T15:15:45.450Z,14.40
2023-05-14T15:18:12.179Z,14.50
2023-05-14T15:20:38.820Z,14.60
2023-05-14T15:23:05.942Z,14.80
2023-05-14T15:25:32.590Z,14.90
2023-05-14T15:27:59.197Z,15.00
2023-05-14T15:30:25.774Z,15.10
2023-05-14T15:32:52.555Z,15.20
2023-05-14T15:35:19.223Z,15.10
2023-05-14T15:37:45.828Z,15.00
2023-05-14T15:40:12.601Z,15.00
2023-05-14T15:42:41.890Z,14.90
2023-05-14T15:45:09.352Z,14.80
2023-05-14T15:47:36.189Z,14.70
2023-05-14T15:50:02.836Z,14.60
2023-05-14T15:52:29.455Z,14.40
2023-05-14T15:54:57.360Z,14.30
2023-05-14T15:57:23.959Z,14.10
2023-05-14T15:59:51.356Z,14.00
2023-05-14T16:02:18.007Z,13.80
2023-05-14T16:04:49.391Z,13.50
2023-05-14T16:07:16.087Z,13.10
2023-05-14T16:09:42.789Z,12.60
2023-05-14T16:12:09.501Z,12.20
2023-05-14T16:14:36.203Z,11.90
2023-05-14T16:17:02.852Z,11.70
2023-05-14T16:19:29.488Z,11.50
2023-05-14T16:21:56.143Z,11.40
2023-05-14T16:24:22.763Z,11.40
2023-05-14T16:26:49.387Z,11.40
2023-05-14T16:29:16.003Z,11.30
2023-05-14T16:31:42.716Z,11.30
2023-05-14T16:34:09.388Z,11.20
2023-05-14T16:36:36.040Z,11.30
2023-05-14T16:41:32.176Z,11.20
2023-05-14T16:43:58.798Z,11.40
2023-05-14T16:46:25.488Z,11.40
2023-05-14T16:48:52.138Z,11.60
2023-05-14T16:51:18.743Z,11.20
2023-05-14T16:53:46.009Z,11.20
2023-05-14T16:56:12.652Z,11.10
2023-05-14T16:58:39.263Z,11.10
2023-05-14T17:01:08.731Z,11.10
2023-05-14T17:03:36.273Z,11.00
2023-05-14T17:06:02.961Z,11.00
2023-05-14T17:08:33.306Z,11.00
2023-05-14T17:11:00.149Z,11.00
2023-05-14T17:13:26.786Z,10.90
2023-05-14T17:15:53.481Z,10.90
2023-05-14T17:18:20.382Z,10.90
2023-05-14T17:20:46.998Z,10.90
2023-05-14T17:23:13.653Z,10.90
2023-05-14T17:25:40.266Z,11.20
2023-05-14T17:28:06.926Z,10.90
2023-05-14T17:30:33.566Z,10.90
2023-05-14T17:33:00.269Z,10.90
2023-05-14T17:35:27.173Z,10.90
2023-05-14T17:37:53.788Z,10.90
2023-05-14T17:40:20.537Z,10.90
2023-05-14T17:42:47.132Z,10.90
2023-05-14T17:45:14.471Z,10.80
2023-05-14T17:47:41.189Z,11.00
2023-05-14T17:50:08.088Z,10.90
2023-05-14T17:52:34.725Z,10.90
2023-05-14T17:55:01.340Z,10.90
2023-05-14T17:57:27.962Z,10.90
2023-05-14T17:59:54.608Z,11.00
2023-05-14T18:02:21.240Z,10.80
2023-05-14T18:04:47.851Z,10.90
2023-05-14T18:07:14.551Z,10.80
2023-05-14T18:09:41.245Z,10.70
2023-05-14T18:12:08.136Z,10.70
2023-05-14T18:14:34.736Z,10.70
2023-05-14T18:17:01.378Z,10.70
2023-05-14T18:19:27.989Z,10.70
2023-05-14T18:21:55.467Z,10.70
2023-05-14T18:24:22.499Z,11.30
2023-05-14T18:26:49.170Z,10.60
2023-05-14T18:29:15.755Z,10.60
2023-05-14T18:31:42.393Z,10.60
2023-05-14T18:34:08.973Z,10.50
2023-05-14T18:36:36.145Z,10.60
2023-05-14T18:39:03.494Z,10.60
2023-05-14T18:41:30.151Z,10.50
2023-05-14T18:43:57.957Z,10.50
2023-05-14T18:46:24.807Z,11.10
2023-05-14T18:48:51.471Z,10.50
2023-05-14T18:51:18.057Z,10.50
2023-05-14T18:53:44.642Z,10.50
2023-05-14T18:56:11.282Z,10.60
2023-05-14T18:58:37.936Z,10.50
2023-05-14T19:01:04.792Z,10.50
2023-05-14T19:03:31.599Z,10.50
2023-05-14T19:05:58.382Z,10.50
2023-05-14T19:08:25.122Z,10.50
2023-05-14T19:10:52.833Z,10.40
2023-05-14T19:13:19.463Z,10.50
2023-05-14T19:15:46.188Z,10.50
2023-05-14T19:18:13.792Z,10.50
2023-05-14T19:20:40.430Z,10.50
2023-05-14T19:23:07.024Z,10.50
2023-05-14T19:25:34.018Z,10.60
2023-05-14T19:28:01.861Z,10.70
2023-05-14T19:30:28.464Z,10.60
2023-05-14T19:32:55.170Z,10.60
2023-05-14T19:35:22.134Z,10.60
2023-05-14T19:37:48.919Z,10.60
2023-05-14T19:40:15.524Z,10.60
2023-05-14T19:42:42.269Z,10.60
2023-05-14T19:45:10.134Z,10.70
2023-05-14T19:47:36.866Z,10.60
2023-05-14T19:50:03.599Z,10.60
2023-05-14T19:52:30.280Z,10.60
2023-05-14T19:54:56.871Z,10.70
2023-05-14T19:57:23.483Z,10.60
2023-05-14T19:59:50.116Z,10.70
2023-05-14T20:02:18.474Z,10.70
2023-05-14T20:04:45.969Z,10.70
2023-05-14T20:07:13.991Z,10.70
2023-05-14T20:09:41.554Z,10.70
2023-05-14T20:12:08.732Z,10.70
2023-05-14T20:14:35.828Z,10.60
2023-05-14T20:17:02.523Z,10.60
2023-05-14T20:19:29.145Z,10.60
2023-05-14T20:21:56.397Z,10.60
2023-05-14T20:24:23.055Z,11.10
2023-05-14T20:26:49.675Z,10.70
2023-05-14T20:29:16.326Z,10.60
2023-05-14T20:31:43.136Z,10.60
2023-05-14T20:34:09.718Z,10.60
2023-05-14T20:36:37.357Z,10.70
2023-05-14T20:39:05.979Z,10.60
2023-05-14T20:41:32.632Z,10.50
2023-05-14T20:43:59.251Z,10.60
2023-05-14T20:46:25.954Z,10.60
2023-05-14T20:48:56.193Z,10.70
2023-05-14T20:51:22.874Z,10.60
2023-05-14T20:53:49.462Z,10.60
2023-05-14T20:56:16.158Z,10.70
2023-05-14T20:58:42.780Z,10.70
2023-05-14T21:01:09.504Z,10.60
2023-05-14T21:03:36.263Z,10.70
2023-05-14T21:06:03.210Z,10.60
2023-05-14T21:08:29.950Z,10.60
2023-05-14T21:10:56.543Z,10.50
2023-05-14T21:13:23.192Z,10.50
2023-05-14T21:15:49.931Z,10.50
2023-05-14T21:18:16.532Z,10.60
2023-05-14T21:20:43.157Z,10.60
2023-05-14T21:23:09.797Z,10.50
2023-05-14T21:25:36.423Z,10.50
2023-05-14T21:28:03.041Z,10.60
2023-05-14T21:30:29.643Z,10.50
2023-05-14T21:32:56.418Z,10.40
2023-05-14T21:35:23.488Z,10.50
2023-05-14T21:37:50.878Z,10.50
2023-05-14T21:40:17.489Z,10.50
2023-05-14T21:42:44.099Z,10.50
2023-05-14T21:45:11.028Z,10.50
2023-05-14T21:47:37.998Z,10.50
2023-05-14T21:50:05.000Z,10.50
2023-05-14T21:52:31.595Z,10.50
2023-05-14T21:54:58.212Z,10.50
2023-05-14T21:57:26.244Z,10.40
2023-05-14T21:59:54.664Z,10.40
2023-05-14T22:02:21.346Z,10.40
2023-05-14T22:04:48.226Z,10.40
2023-05-14T22:07:14.832Z,10.30
2023-05-14T22:09:41.525Z,10.30
2023-05-14T22:12:08.216Z,10.30
2023-05-14T22:14:34.810Z,10.30
2023-05-14T22:17:01.406Z,10.30
2023-05-14T22:19:28.515Z,10.10
2023-05-14T22:21:55.185Z,10.20
2023-05-14T22:24:21.792Z,10.20
2023-05-14T22:26:48.391Z,10.20
2023-05-14T22:29:15.016Z,10.10
2023-05-14T22:31:41.704Z,10.10
2023-05-14T22:34:08.403Z,10.10
2023-05-14T22:36:35.228Z,10.00
2023-05-14T22:39:01.814Z,10.50
2023-05-14T22:41:28.436Z,9.90
2023-05-14T22:43:55.026Z,10.00
2023-05-14T22:46:21.732Z,10.80
2023-05-14T22:48:49.207Z,10.00
2023-05-14T22:51:16.326Z,9.90
2023-05-14T22:53:43.062Z,9.90
2023-05-14T22:56:09.679Z,10.30
2023-05-14T22:58:36.295Z,9.90
2023-05-14T23:01:03.241Z,9.90
2023-05-14T23:03:29.887Z,10.00
2023-05-14T23:05:56.510Z,9.90
2023-05-14T23:08:23.117Z,10.20
2023-05-14T23:10:49.730Z,10.00
2023-05-14T23:13:16.429Z,10.00
2023-05-14T23:15:43.997Z,9.90
2023-05-14T23:18:10.779Z,9.90
2023-05-14T23:20:37.446Z,9.90
2023-05-14T23:23:04.059Z,9.90
2023-05-14T23:25:31.668Z,9.90
2023-05-14T23:27:58.285Z,9.90
2023-05-14T23:30:24.928Z,9.90
2023-05-14T23:32:51.575Z,9.80
2023-05-14T23:35:18.206Z,9.80
2023-05-14T23:37:47.292Z,9.90
2023-05-14T23:40:15.583Z,9.80
2023-05-14T23:42:42.506Z,9.90
2023-05-14T23:45:09.291Z,9.90
2023-05-14T23:47:36.038Z,9.90
2023-05-14T23:50:02.943Z,9.90
2023-05-14T23:52:29.568Z,9.90
2023-05-14T23:54:56.163Z,10.00
2023-05-14T23:57:22.768Z,9.90
2023-05-14T23:59:49.369Z,9.90
